Time;durP1;ratioP1;P1;durP2;ratioP2;P2;SDS_P1;SDS_P2;PMS_P1;PMS_P2;Temp;Humidity;BMP_temperature;BMP_pressure;BME280_temperature;BME280_humidity;BME280_pressure;Samples;Min_cycle;Max_cycle;Signal;HPM_P1;HPM_P2
2022/04/24 00:01:56;;;;;;;42.75;17.60;;;12.40;99.90;;;;;;5093486;28;20024;-65
2022/04/24 00:04:23;;;;;;;36.33;17.77;;;12.30;99.90;;;;;;5075450;28;20026;-65
2022/04/24 00:06:51;;;;;;;35.83;15.68;;;12.30;99.90;;;;;;5093394;28;20028;-64
2022/04/24 00:09:16;;;;;;;31.73;15.45;;;12.30;99.90;;;;;;5088858;28;20078;-65
2022/04/24 00:11:42;;;;;;;37.28;15.90;;;12.20;99.90;;;;;;5067652;28;20025;-64
2022/04/24 00:14:10;;;;;;;41.75;16.17;;;12.20;99.90;;;;;;5052455;28;20449;-64
2022/04/24 00:16:39;;;;;;;35.83;15.98;;;12.20;99.90;;;;;;5053132;28;20028;-65
2022/04/24 00:19:06;;;;;;;34.65;16.40;;;12.10;99.90;;;;;;5056519;28;20107;-64
2022/04/24 00:21:32;;;;;;;33.17;15.70;;;12.10;99.90;;;;;;5093177;28;20020;-65
2022/04/24 00:23:59;;;;;;;33.88;15.38;;;12.10;99.90;;;;;;5092960;28;20470;-64
2022/04/24 00:26:24;;;;;;;42.78;15.45;;;12.10;99.90;;;;;;5069933;28;20468;-64
2022/04/24 00:28:50;;;;;;;38.13;15.80;;;12.10;99.90;;;;;;5052692;28;20037;-64
2022/04/24 00:31:16;;;;;;;33.67;15.40;;;12.00;99.90;;;;;;5057056;28;20032;-64
2022/04/24 00:33:42;;;;;;;31.00;16.40;;;12.00;99.90;;;;;;5051687;28;20111;-64
2022/04/24 00:36:07;;;;;;;36.28;15.93;;;12.00;99.90;;;;;;5052549;28;20029;-64
2022/04/24 00:38:34;;;;;;;40.60;16.13;;;12.00;99.90;;;;;;5052542;28;20025;-64
2022/04/24 00:41:00;;;;;;;37.28;15.15;;;11.90;99.90;;;;;;5087047;28;20109;-64
2022/04/24 00:43:26;;;;;;;34.35;15.02;;;11.80;99.90;;;;;;5055663;28;20037;-64
2022/04/24 00:46:10;;;;;;;38.25;16.17;;;11.80;99.90;;;;;;5052527;28;20021;-64
2022/04/24 00:48:36;;;;;;;41.63;15.43;;;11.70;99.90;;;;;;5052220;28;20029;-65
2022/04/24 00:51:01;;;;;;;35.78;15.10;;;11.60;99.90;;;;;;5069343;28;20020;-64
2022/04/24 00:53:27;;;;;;;39.83;16.65;;;11.60;99.90;;;;;;5092642;28;20073;-65
2022/04/24 00:55:53;;;;;;;37.53;15.10;;;11.60;99.90;;;;;;5092538;28;20468;-65
2022/04/24 00:58:18;;;;;;;38.00;15.82;;;11.50;99.90;;;;;;5059395;28;20074;-64
2022/04/24 01:00:44;;;;;;;39.90;15.50;;;11.50;99.90;;;;;;5051949;28;20059;-64
2022/04/24 01:03:13;;;;;;;37.83;15.77;;;11.30;99.90;;;;;;5049178;28;20021;-64
2022/04/24 01:05:39;;;;;;;37.33;15.38;;;11.20;99.90;;;;;;5048953;28;20017;-64
2022/04/24 01:08:05;;;;;;;38.53;16.90;;;11.20;99.90;;;;;;5060433;28;20108;-64
2022/04/24 01:10:40;;;;;;;33.90;15.38;;;11.10;99.90;;;;;;5077418;28;20460;-65
2022/04/24 01:13:06;;;;;;;40.13;16.52;;;11.00;99.90;;;;;;5065118;28;20370;-64
2022/04/24 01:15:32;;;;;;;33.85;15.57;;;11.00;99.90;;;;;;5051618;28;20473;-64
2022/04/24 01:18:00;;;;;;;37.15;14.60;;;10.90;99.90;;;;;;5051790;28;20029;-64
2022/04/24 01:20:25;;;;;;;45.03;16.77;;;10.80;99.90;;;;;;5075915;28;20027;-63
2022/04/24 01:22:51;;;;;;;36.65;15.13;;;10.70;99.90;;;;;;5091782;28;20024;-64
2022/04/24 01:25:17;;;;;;;39.25;15.52;;;10.60;99.90;;;;;;5091494;28;20055;-64
2022/04/24 01:27:43;;;;;;;48.47;15.65;;;10.60;99.90;;;;;;5072985;28;20022;-64
2022/04/24 01:30:09;;;;;;;51.90;17.73;;;10.50;99.90;;;;;;5070940;28;20460;-64
2022/04/24 01:32:35;;;;;;;37.33;15.73;;;10.50;99.90;;;;;;5091669;28;20683;-64
2022/04/24 01:35:02;;;;;;;39.25;14.75;;;10.50;99.90;;;;;;5091651;28;20070;-64
2022/04/24 01:37:28;;;;;;;42.05;15.82;;;10.50;99.90;;;;;;5091647;28;20077;-64
2022/04/24 01:39:54;;;;;;;37.72;14.73;;;10.40;99.90;;;;;;5091627;28;20399;-64
2022/04/24 01:42:19;;;;;;;41.20;15.45;;;10.40;99.90;;;;;;5080925;28;20068;-64
2022/04/24 01:44:45;;;;;;;40.70;15.57;;;10.40;99.90;;;;;;5051057;28;20044;-64
2022/04/24 01:47:11;;;;;;;36.10;16.48;;;10.30;99.90;;;;;;5030539;28;20484;-64
2022/04/24 01:49:36;;;;;;;40.42;15.57;;;10.30;99.90;;;;;;5058591;28;20544;-65
2022/04/24 01:52:05;;;;;;;39.25;16.08;;;10.20;99.90;;;;;;5090603;28;20337;-64
2022/04/24 01:54:31;;;;;;;39.92;16.15;;;10.10;99.90;;;;;;5065526;28;20068;-63
2022/04/24 01:56:56;;;;;;;35.85;15.73;;;10.10;99.90;;;;;;5051548;28;20428;-63
2022/04/24 01:59:22;;;;;;;38.53;16.30;;;10.10;99.90;;;;;;5056637;28;20036;-64
2022/04/24 02:01:48;;;;;;;34.65;15.45;;;10.10;99.90;;;;;;5091277;28;20027;-63
2022/04/24 02:04:13;;;;;;;40.47;15.57;;;10.00;99.90;;;;;;5088014;28;20487;-63
2022/04/24 02:06:39;;;;;;;38.45;15.32;;;10.00;99.90;;;;;;5050940;28;20477;-64
2022/04/24 02:09:05;;;;;;;46.15;16.65;;;10.00;99.90;;;;;;5051174;28;20036;-65
2022/04/24 02:11:30;;;;;;;31.13;14.27;;;9.90;99.90;;;;;;5090717;28;20043;-63
2022/04/24 02:13:56;;;;;;;41.55;16.40;;;9.90;99.90;;;;;;5057717;28;20116;-63
2022/04/24 02:16:22;;;;;;;37.63;15.38;;;9.90;99.90;;;;;;5050841;28;20033;-64
2022/04/24 02:18:48;;;;;;;43.17;16.33;;;9.80;99.90;;;;;;5050814;28;20118;-64
2022/04/24 02:21:13;;;;;;;36.08;18.05;;;9.80;99.90;;;;;;5086641;28;20031;-63
2022/04/24 02:23:39;;;;;;;45.22;16.20;;;9.80;99.90;;;;;;5090718;28;20035;-64
2022/04/24 02:26:05;;;;;;;36.38;15.50;;;9.70;99.90;;;;;;5072442;28;20027;-65
2022/04/24 02:28:31;;;;;;;36.22;14.57;;;9.70;99.90;;;;;;5066246;28;20029;-64
2022/04/24 02:30:56;;;;;;;41.15;15.40;;;9.70;99.90;;;;;;5081624;28;20467;-64
2022/04/24 02:33:22;;;;;;;38.67;14.73;;;9.60;99.90;;;;;;5090731;28;20056;-64
2022/04/24 02:35:48;;;;;;;35.63;14.93;;;9.60;99.90;;;;;;5052529;28;20063;-63
2022/04/24 02:38:14;;;;;;;30.23;14.32;;;9.70;99.90;;;;;;5050371;28;20021;-63
2022/04/24 02:40:39;;;;;;;35.03;14.88;;;9.70;99.90;;;;;;5075911;28;20587;-64
2022/04/24 02:43:05;;;;;;;40.40;15.55;;;9.60;99.90;;;;;;5075931;28;20051;-65
2022/04/24 02:45:31;;;;;;;30.70;16.08;;;9.60;99.90;;;;;;5050459;28;20021;-65
2022/04/24 02:47:57;;;;;;;40.67;15.95;;;9.50;99.90;;;;;;5050326;28;20096;-65
2022/04/24 02:50:23;;;;;;;38.88;15.30;;;9.60;99.90;;;;;;5071125;28;20635;-64
2022/04/24 02:52:54;;;;;;;41.45;16.30;;;9.60;99.90;;;;;;5060351;28;20021;-64
2022/04/24 02:55:21;;;;;;;34.17;14.82;;;9.50;99.90;;;;;;5050214;28;20040;-64
2022/04/24 02:57:48;;;;;;;42.20;16.23;;;9.50;99.90;;;;;;5053911;28;20070;-64
2022/04/24 03:00:19;;;;;;;36.80;15.25;;;9.50;99.90;;;;;;5072886;28;20027;-64
2022/04/24 03:02:46;;;;;;;56.08;15.98;;;9.50;99.90;;;;;;5094414;28;20075;-63
2022/04/24 03:05:14;;;;;;;36.85;16.10;;;9.50;99.90;;;;;;5094429;28;20184;-64
2022/04/24 03:07:40;;;;;;;36.35;14.50;;;9.50;99.90;;;;;;5094361;28;20020;-64
2022/04/24 03:10:08;;;;;;;39.25;14.05;;;9.50;99.90;;;;;;5094194;28;20023;-64
2022/04/24 03:12:37;;;;;;;35.35;14.35;;;9.40;99.90;;;;;;5091351;28;20020;-65
2022/04/24 03:15:07;;;;;;;32.38;13.15;;;9.40;99.90;;;;;;5053801;28;20083;-64
2022/04/24 03:17:33;;;;;;;29.30;13.38;;;9.30;99.90;;;;;;5053388;28;20039;-63
2022/04/24 03:20:04;;;;;;;32.53;13.63;;;9.30;99.90;;;;;;5064671;28;20027;-64
2022/04/24 03:22:30;;;;;;;37.10;14.15;;;9.30;99.90;;;;;;5090762;28;20024;-64
2022/04/24 03:24:57;;;;;;;33.95;13.55;;;9.20;99.90;;;;;;5090931;28;20028;-64
2022/04/24 03:27:23;;;;;;;35.85;13.10;;;9.10;99.90;;;;;;5090784;28;20021;-64
2022/04/24 03:29:49;;;;;;;31.13;12.52;;;9.10;99.90;;;;;;5064299;28;20038;-64
2022/04/24 03:32:15;;;;;;;33.95;13.25;;;9.00;99.90;;;;;;5093772;28;20456;-64
2022/04/24 03:34:40;;;;;;;32.03;13.07;;;9.00;99.90;;;;;;5093693;28;20563;-63
2022/04/24 03:37:06;;;;;;;35.72;13.68;;;8.90;99.90;;;;;;5093702;28;20062;-64
2022/04/24 03:39:32;;;;;;;40.63;13.75;;;8.90;99.90;;;;;;5075383;28;20400;-64
2022/04/24 03:41:58;;;;;;;35.05;13.10;;;8.80;99.90;;;;;;5093409;28;20097;-63
2022/04/24 03:44:24;;;;;;;34.97;13.05;;;8.70;99.90;;;;;;5063410;28;20079;-63
2022/04/24 03:46:49;;;;;;;31.48;12.93;;;8.70;99.90;;;;;;5053542;28;20025;-64
2022/04/24 03:49:16;;;;;;;34.72;13.52;;;8.70;99.90;;;;;;5035913;28;20112;-64
2022/04/24 03:51:42;;;;;;;40.42;13.55;;;8.70;99.90;;;;;;5093371;28;20026;-64
2022/04/24 03:54:08;;;;;;;38.40;13.38;;;8.60;99.90;;;;;;5093429;28;20035;-64
2022/04/24 03:56:34;;;;;;;31.67;13.77;;;8.60;99.90;;;;;;5075229;28;20032;-64
2022/04/24 03:59:00;;;;;;;36.55;13.85;;;8.60;99.90;;;;;;5071649;28;20029;-65
2022/04/24 04:01:26;;;;;;;33.03;13.35;;;8.60;99.90;;;;;;5086562;28;20546;-64
2022/04/24 04:03:52;;;;;;;40.83;14.20;;;8.60;99.90;;;;;;5089841;28;20012;-65
2022/04/24 04:06:19;;;;;;;37.05;13.30;;;8.50;99.90;;;;;;5089937;28;20024;-64
2022/04/24 04:08:45;;;;;;;32.65;13.10;;;8.50;99.90;;;;;;5088582;28;20031;-63
2022/04/24 04:11:11;;;;;;;40.63;13.95;;;8.50;99.90;;;;;;5091942;28;20020;-64
2022/04/24 04:13:36;;;;;;;42.33;14.30;;;8.50;99.90;;;;;;5061632;28;20588;-62
2022/04/24 04:16:02;;;;;;;36.65;13.82;;;8.50;99.90;;;;;;5059091;28;20062;-64
2022/04/24 04:18:28;;;;;;;41.88;14.77;;;8.50;99.90;;;;;;5058024;28;20029;-64
2022/04/24 04:20:54;;;;;;;40.65;14.20;;;8.40;99.90;;;;;;5049532;28;20021;-65
2022/04/24 04:23:19;;;;;;;36.53;14.25;;;8.40;99.90;;;;;;5049640;28;20037;-64
2022/04/24 04:25:45;;;;;;;32.97;13.77;;;8.40;99.90;;;;;;5049383;28;20579;-65
2022/04/24 04:28:11;;;;;;;36.92;13.68;;;8.30;99.90;;;;;;5056250;28;20036;-64
2022/04/24 04:30:37;;;;;;;38.05;15.20;;;8.30;99.90;;;;;;5049401;28;20512;-64
2022/04/24 04:33:02;;;;;;;32.15;14.10;;;8.30;99.90;;;;;;5049473;28;20485;-64
2022/04/24 04:35:28;;;;;;;46.22;14.18;;;8.30;99.90;;;;;;5047752;28;20053;-64
2022/04/24 04:37:54;;;;;;;43.50;14.68;;;8.30;99.90;;;;;;5065197;28;20059;-65
2022/04/24 04:40:22;;;;;;;41.00;14.43;;;8.30;99.90;;;;;;5092626;28;20024;-63
2022/04/24 04:42:49;;;;;;;35.95;14.45;;;8.20;99.90;;;;;;5092412;28;20491;-64
2022/04/24 04:45:15;;;;;;;34.08;13.93;;;8.20;99.90;;;;;;5090561;28;20488;-64
2022/04/24 04:47:41;;;;;;;38.80;13.80;;;8.20;99.90;;;;;;5083391;28;20673;-64
2022/04/24 04:50:07;;;;;;;35.10;14.63;;;8.20;99.90;;;;;;5049608;28;20028;-64
2022/04/24 04:52:34;;;;;;;40.97;16.45;;;8.20;99.90;;;;;;5055607;28;20036;-64
2022/04/24 04:55:00;;;;;;;44.58;14.57;;;8.20;99.90;;;;;;5068164;28;20094;-65
2022/04/24 04:57:26;;;;;;;38.08;16.35;;;8.20;99.90;;;;;;5055885;28;20139;-65
2022/04/24 04:59:52;;;;;;;40.58;15.27;;;8.20;99.90;;;;;;5071782;28;20096;-64
2022/04/24 05:02:17;;;;;;;39.22;15.73;;;8.20;99.90;;;;;;5069058;28;20062;-65
2022/04/24 05:04:43;;;;;;;44.38;14.30;;;8.20;99.90;;;;;;5068372;28;20024;-64
2022/04/24 05:07:11;;;;;;;44.70;16.10;;;8.20;99.90;;;;;;5069906;28;20047;-64
2022/04/24 05:09:37;;;;;;;48.90;15.88;;;8.20;99.90;;;;;;5072542;28;20537;-64
2022/04/24 05:12:03;;;;;;;43.95;16.02;;;8.30;99.90;;;;;;5071576;28;20083;-65
2022/04/24 05:14:29;;;;;;;36.38;15.02;;;8.30;99.90;;;;;;5071206;28;20512;-64
2022/04/24 05:16:54;;;;;;;34.33;15.50;;;8.30;99.90;;;;;;5067312;28;20066;-64
2022/04/24 05:19:20;;;;;;;37.53;14.50;;;8.30;99.90;;;;;;5061125;28;20154;-64
2022/04/24 05:21:46;;;;;;;38.25;14.95;;;8.30;99.90;;;;;;5051519;28;20040;-64
2022/04/24 05:24:11;;;;;;;44.10;15.35;;;8.30;99.90;;;;;;5050362;28;20033;-62
2022/04/24 05:26:37;;;;;;;38.88;14.77;;;8.40;99.90;;;;;;5048679;28;20029;-63
2022/04/24 05:29:03;;;;;;;40.10;14.95;;;8.40;99.90;;;;;;5079867;28;20028;-64
2022/04/24 05:31:30;;;;;;;39.30;16.13;;;8.40;99.90;;;;;;5071467;28;20555;-64
2022/04/24 05:33:56;;;;;;;45.30;15.90;;;8.50;99.90;;;;;;5030437;28;20032;-64
2022/04/24 05:36:22;;;;;;;32.97;15.07;;;8.60;99.90;;;;;;5048082;28;20025;-64
2022/04/24 05:38:47;;;;;;;39.78;15.20;;;8.70;99.90;;;;;;5060820;28;20013;-65
2022/04/24 05:41:13;;;;;;;38.72;15.23;;;8.80;99.90;;;;;;5049058;28;20164;-65
2022/04/24 05:43:38;;;;;;;42.25;14.50;;;8.90;99.90;;;;;;5067933;28;20036;-65
2022/04/24 05:46:04;;;;;;;40.17;17.63;;;8.90;99.90;;;;;;5066372;28;20385;-64
2022/04/24 05:48:30;;;;;;;39.28;15.57;;;8.90;99.90;;;;;;5069821;28;20027;-64
2022/04/24 05:50:56;;;;;;;44.45;15.50;;;8.90;99.90;;;;;;5088014;28;20022;-65
2022/04/24 05:53:21;;;;;;;39.47;16.02;;;9.00;99.90;;;;;;5088316;28;20103;-64
2022/04/24 05:55:47;;;;;;;45.35;16.25;;;9.00;99.90;;;;;;5076289;28;20535;-64
2022/04/24 05:58:13;;;;;;;44.38;15.48;;;9.00;99.90;;;;;;5064435;28;20042;-64
2022/04/24 06:00:38;;;;;;;40.80;15.55;;;9.00;99.90;;;;;;5088131;28;20032;-64
2022/04/24 06:03:04;;;;;;;37.15;16.23;;;9.00;99.90;;;;;;5048919;28;20028;-65
2022/04/24 06:05:30;;;;;;;38.30;15.95;;;9.00;99.90;;;;;;5030007;28;20025;-65
2022/04/24 06:07:56;;;;;;;40.63;17.33;;;9.00;99.90;;;;;;5044887;28;20047;-64
2022/04/24 06:10:22;;;;;;;35.17;16.52;;;9.00;99.90;;;;;;5088934;28;20061;-64
2022/04/24 06:12:48;;;;;;;38.30;16.95;;;8.90;99.90;;;;;;5050910;28;20419;-65
2022/04/24 06:15:15;;;;;;;37.30;15.57;;;9.00;99.90;;;;;;5050414;28;20041;-64
2022/04/24 06:17:47;;;;;;;32.60;15.80;;;9.10;99.90;;;;;;5048670;28;20039;-64
2022/04/24 06:20:14;;;;;;;43.28;17.30;;;9.10;99.90;;;;;;5082035;28;20032;-65
2022/04/24 06:22:46;;;;;;;39.40;17.23;;;9.20;99.90;;;;;;5050465;28;20120;-64
2022/04/24 06:25:33;;;;;;;36.80;16.95;;;9.20;99.90;;;;;;5033079;28;20486;-65
2022/04/24 06:28:01;;;;;;;47.10;18.40;;;9.20;99.90;;;;;;5062859;28;20027;-64
2022/04/24 06:30:28;;;;;;;35.55;16.60;;;9.30;99.90;;;;;;5090496;28;20039;-64
2022/04/24 06:32:56;;;;;;;36.00;17.02;;;9.30;99.90;;;;;;5057754;28;20017;-65
2022/04/24 06:35:22;;;;;;;39.30;16.73;;;9.30;99.90;;;;;;5050491;28;20033;-64
2022/04/24 06:37:53;;;;;;;38.92;17.13;;;9.50;99.90;;;;;;5032997;28;20044;-65
2022/04/24 06:40:19;;;;;;;40.28;17.45;;;9.60;99.90;;;;;;5050126;28;20104;-65
2022/04/24 06:43:05;;;;;;;42.83;17.83;;;9.80;99.90;;;;;;5050340;28;20048;-65
2022/04/24 06:45:39;;;;;;;39.83;17.00;;;10.00;99.90;;;;;;5050455;28;20112;-65
2022/04/24 06:48:13;;;;;;;32.80;17.45;;;10.30;99.90;;;;;;5064133;28;20031;-64
2022/04/24 06:50:46;;;;;;;35.83;17.67;;;10.50;99.90;;;;;;5070858;28;20093;-63
2022/04/24 06:53:18;;;;;;;37.38;17.50;;;10.70;99.90;;;;;;5050172;28;20033;-64
2022/04/24 06:55:45;;;;;;;36.53;16.88;;;10.80;99.90;;;;;;5050190;28;20090;-65
2022/04/24 06:58:13;;;;;;;39.67;17.58;;;11.00;99.90;;;;;;5065293;28;20027;-63
2022/04/24 07:00:42;;;;;;;36.90;17.38;;;11.10;99.90;;;;;;5089937;28;20107;-64
2022/04/24 07:03:12;;;;;;;33.60;15.75;;;11.30;99.90;;;;;;5048843;28;20036;-64
2022/04/24 07:05:39;;;;;;;34.00;16.48;;;11.40;99.90;;;;;;5046855;28;20094;-63
2022/04/24 07:08:05;;;;;;;37.00;16.75;;;11.60;99.90;;;;;;5082247;28;20016;-64
2022/04/24 07:10:31;;;;;;;33.05;15.80;;;11.70;99.90;;;;;;5073008;28;20039;-64
2022/04/24 07:12:57;;;;;;;32.45;17.42;;;11.80;99.90;;;;;;5067368;28;20483;-65
2022/04/24 07:15:24;;;;;;;35.10;16.77;;;11.90;99.90;;;;;;5069610;28;20046;-64
2022/04/24 07:17:51;;;;;;;29.85;17.23;;;11.90;99.90;;;;;;5040318;28;20021;-64
2022/04/24 07:20:19;;;;;;;34.55;16.73;;;11.80;99.90;;;;;;5066715;28;20111;-63
2022/04/24 07:22:52;;;;;;;32.33;16.77;;;11.70;99.90;;;;;;5063055;28;20604;-66
2022/04/24 07:25:20;;;;;;;33.63;16.83;;;11.80;99.90;;;;;;5049276;28;20028;-64
2022/04/24 07:27:46;;;;;;;35.72;17.05;;;11.80;99.90;;;;;;5057099;28;20103;-64
2022/04/24 07:30:13;;;;;;;31.77;16.92;;;11.80;99.90;;;;;;5037284;28;20045;-65
2022/04/24 07:32:41;;;;;;;34.97;16.63;;;11.90;99.90;;;;;;5050797;28;20124;-65
2022/04/24 07:35:34;;;;;;;34.92;17.30;;;12.00;99.90;;;;;;5051394;28;20024;-65
2022/04/24 07:38:01;;;;;;;32.25;16.75;;;12.00;99.90;;;;;;5050139;28;20388;-64
2022/04/24 07:40:28;;;;;;;31.05;15.52;;;12.10;99.90;;;;;;5058801;28;20401;-65
2022/04/24 07:42:57;;;;;;;30.02;15.43;;;12.10;99.90;;;;;;5064251;28;20064;-66
2022/04/24 07:45:34;;;;;;;28.65;16.08;;;12.20;99.90;;;;;;5054841;28;20427;-66
2022/04/24 07:48:01;;;;;;;30.13;15.63;;;12.20;99.90;;;;;;5064622;28;20441;-66
2022/04/24 07:50:30;;;;;;;43.15;16.40;;;12.20;99.90;;;;;;5093738;28;20055;-67
2022/04/24 07:52:56;;;;;;;28.55;15.85;;;12.30;99.90;;;;;;5093751;28;20020;-64
2022/04/24 07:55:24;;;;;;;30.67;15.43;;;12.40;99.90;;;;;;5077350;28;20032;-65
2022/04/24 07:57:53;;;;;;;30.52;15.98;;;12.50;99.90;;;;;;5076796;28;20047;-64
2022/04/24 08:00:21;;;;;;;32.90;15.75;;;12.50;99.90;;;;;;5093562;28;20115;-65
2022/04/24 08:03:02;;;;;;;32.67;16.73;;;12.60;99.90;;;;;;5070692;28;20416;-63
2022/04/24 08:05:38;;;;;;;32.75;15.75;;;12.60;99.90;;;;;;5065942;28;20043;-66
2022/04/24 08:08:15;;;;;;;26.50;15.20;;;12.70;99.90;;;;;;5078736;28;20095;-65
2022/04/24 08:10:44;;;;;;;34.25;16.08;;;12.90;99.90;;;;;;5082408;28;20105;-65
2022/04/24 08:13:10;;;;;;;29.38;16.60;;;12.90;99.90;;;;;;5065649;28;20017;-66
2022/04/24 08:15:37;;;;;;;32.88;16.17;;;12.90;99.90;;;;;;5067799;28;20044;-64
2022/04/24 08:18:04;;;;;;;26.00;15.02;;;13.00;99.90;;;;;;5076711;28;20020;-65
2022/04/24 08:20:32;;;;;;;27.73;15.32;;;13.10;99.90;;;;;;5080084;28;20029;-64
2022/04/24 08:22:59;;;;;;;26.85;14.20;;;13.20;99.90;;;;;;5067062;28;20020;-65
2022/04/24 08:25:26;;;;;;;24.10;13.93;;;13.30;99.90;;;;;;5061058;28;20099;-63
2022/04/24 08:27:54;;;;;;;24.65;14.27;;;13.30;99.90;;;;;;5060207;28;20024;-64
2022/04/24 08:30:23;;;;;;;29.27;14.98;;;13.30;99.90;;;;;;5075875;28;20463;-65
2022/04/24 08:32:50;;;;;;;26.02;14.35;;;13.40;99.90;;;;;;5043596;28;20024;-65
2022/04/24 08:35:18;;;;;;;27.67;13.55;;;13.60;99.90;;;;;;5071673;28;20094;-65
2022/04/24 08:37:45;;;;;;;19.90;12.65;;;13.60;99.90;;;;;;5073685;28;20021;-65
2022/04/24 08:40:12;;;;;;;26.20;13.15;;;13.60;99.90;;;;;;5068229;28;20020;-66
2022/04/24 08:42:40;;;;;;;27.10;13.57;;;13.70;99.90;;;;;;5057307;28;20086;-66
2022/04/24 08:45:08;;;;;;;23.75;12.57;;;13.70;99.90;;;;;;5072526;28;20032;-66
2022/04/24 08:47:34;;;;;;;20.08;12.35;;;13.80;99.90;;;;;;5069486;28;20636;-67
2022/04/24 08:50:01;;;;;;;24.38;12.25;;;13.90;99.90;;;;;;5071992;28;20028;-65
2022/04/24 08:52:29;;;;;;;21.10;12.40;;;14.00;99.90;;;;;;5053284;28;20574;-66
2022/04/24 08:54:56;;;;;;;19.45;12.15;;;14.10;99.90;;;;;;5067774;28;20037;-63
2022/04/24 08:57:30;;;;;;;22.13;11.98;;;14.10;99.90;;;;;;5072174;28;20154;-65
2022/04/24 09:00:00;;;;;;;18.58;11.18;;;14.10;99.90;;;;;;5053189;28;20067;-63
2022/04/24 09:02:26;;;;;;;28.10;12.68;;;14.20;99.90;;;;;;5052461;28;20025;-64
2022/04/24 09:04:53;;;;;;;19.20;10.95;;;14.30;99.90;;;;;;5055477;28;20074;-64
2022/04/24 09:07:20;;;;;;;21.77;11.15;;;14.50;99.90;;;;;;5072045;28;20472;-63
2022/04/24 09:09:51;;;;;;;20.05;10.57;;;14.50;99.90;;;;;;5072794;28;20028;-64
2022/04/24 09:12:28;;;;;;;22.03;10.73;;;14.60;99.90;;;;;;5071727;28;20024;-66
2022/04/24 09:14:56;;;;;;;19.80;10.10;;;14.70;99.90;;;;;;5051918;28;20618;-65
2022/04/24 09:17:26;;;;;;;18.95;10.50;;;14.80;99.90;;;;;;5034002;28;20373;-65
2022/04/24 09:19:54;;;;;;;22.00;10.88;;;14.90;99.90;;;;;;5070261;28;20017;-64
2022/04/24 09:22:22;;;;;;;22.35;11.15;;;15.00;99.90;;;;;;5055119;28;20088;-64
2022/04/24 09:24:56;;;;;;;19.50;10.88;;;15.10;99.90;;;;;;5049825;28;20024;-64
2022/04/24 09:27:26;;;;;;;17.92;10.70;;;15.10;99.90;;;;;;5049755;28;20021;-71
2022/04/24 09:29:56;;;;;;;24.13;11.80;;;15.10;99.90;;;;;;5089936;28;20184;-68
2022/04/24 09:32:24;;;;;;;16.90;9.93;;;15.20;99.90;;;;;;5088447;28;20055;-73
2022/04/24 09:34:50;;;;;;;17.35;10.45;;;15.20;99.90;;;;;;5070907;28;20040;-76
2022/04/24 09:37:16;;;;;;;20.30;11.07;;;15.20;99.90;;;;;;5071597;28;20021;-68
2022/04/24 09:39:42;;;;;;;17.55;10.15;;;15.30;99.90;;;;;;5076451;28;20047;-70
2022/04/24 09:42:10;;;;;;;15.23;9.40;;;15.40;99.90;;;;;;5070999;28;20056;-72
2022/04/24 09:44:47;;;;;;;16.70;8.45;;;15.60;99.90;;;;;;5070457;28;20508;-70
2022/04/24 09:47:16;;;;;;;19.55;8.90;;;15.70;99.90;;;;;;5068775;28;20135;-75
2022/04/24 09:49:46;;;;;;;14.35;8.48;;;15.80;99.60;;;;;;5055576;28;20027;-75
2022/04/24 09:52:23;;;;;;;15.50;8.60;;;15.90;98.00;;;;;;5051134;28;20025;-77
2022/04/24 09:54:51;;;;;;;15.80;8.07;;;15.80;97.80;;;;;;5052468;28;20039;-78
2022/04/24 09:57:19;;;;;;;12.02;7.30;;;15.90;98.00;;;;;;5064384;28;20056;-75
2022/04/24 09:59:46;;;;;;;16.33;8.52;;;15.90;96.60;;;;;;5089506;28;20097;-75
2022/04/24 10:02:15;;;;;;;14.65;7.90;;;16.00;96.80;;;;;;5091578;28;20051;-74
2022/04/24 10:04:42;;;;;;;12.88;7.90;;;16.10;95.90;;;;;;5061493;28;20368;-75
2022/04/24 10:07:10;;;;;;;14.05;7.90;;;16.10;94.80;;;;;;5071131;28;20428;-74
2022/04/24 10:09:39;;;;;;;19.48;8.23;;;16.10;94.20;;;;;;5087966;28;20025;-75
2022/04/24 10:12:14;;;;;;;15.10;7.82;;;16.20;95.20;;;;;;5091442;28;20054;-75
2022/04/24 10:14:57;;;;;;;10.02;7.20;;;16.30;93.40;;;;;;5054516;28;20136;-74
2022/04/24 10:17:43;;;;;;;15.70;7.63;;;16.30;94.70;;;;;;5051070;28;20029;-75
2022/04/24 10:20:27;;;;;;;13.73;7.97;;;16.30;94.10;;;;;;5048787;28;20404;-75
2022/04/24 10:22:54;;;;;;;16.90;7.88;;;16.40;95.70;;;;;;5052816;28;20037;-75
2022/04/24 10:25:35;;;;;;;13.30;8.23;;;16.50;93.80;;;;;;5050736;28;20047;-72
2022/04/24 10:28:15;;;;;;;11.13;7.70;;;16.70;91.70;;;;;;5057657;28;20020;-77
2022/04/24 10:30:42;;;;;;;15.27;7.28;;;16.60;92.10;;;;;;5091433;28;20023;-74
2022/04/24 10:33:15;;;;;;;15.32;7.93;;;16.70;91.70;;;;;;5058550;28;20040;-76
2022/04/24 10:35:55;;;;;;;8.75;6.88;;;16.70;93.10;;;;;;5050591;28;20611;-73
2022/04/24 10:38:23;;;;;;;11.25;6.55;;;16.70;90.60;;;;;;5058072;28;20024;-75
2022/04/24 10:41:02;;;;;;;13.00;7.55;;;16.80;87.70;;;;;;5077467;28;20425;-75
2022/04/24 10:43:40;;;;;;;14.68;6.53;;;16.90;89.70;;;;;;5070459;28;20043;-75
2022/04/24 10:46:24;;;;;;;11.25;6.50;;;17.00;86.80;;;;;;5070355;28;20051;-75
2022/04/24 10:48:50;;;;;;;18.35;7.07;;;17.10;86.70;;;;;;5064861;28;20032;-75
2022/04/24 10:51:28;;;;;;;13.20;7.10;;;17.20;84.90;;;;;;5070111;28;20024;-75
2022/04/24 10:53:59;;;;;;;8.63;6.70;;;17.20;83.50;;;;;;5070364;28;20048;-76
2022/04/24 10:56:32;;;;;;;11.05;6.68;;;17.20;82.60;;;;;;5070098;28;20036;-73
2022/04/24 10:59:15;;;;;;;11.05;6.43;;;17.20;84.00;;;;;;5036527;28;20432;-75
2022/04/24 11:01:43;;;;;;;10.88;6.78;;;17.40;85.30;;;;;;5050145;28;20039;-74
2022/04/24 11:04:11;;;;;;;15.45;6.88;;;17.50;83.60;;;;;;5058857;28;20021;-73
2022/04/24 11:06:37;;;;;;;15.15;6.90;;;17.70;85.50;;;;;;5049177;28;20028;-72
2022/04/24 11:09:13;;;;;;;11.10;6.75;;;17.80;80.10;;;;;;5072777;28;20071;-71
2022/04/24 11:12:07;;;;;;;8.70;6.10;;;17.80;78.40;;;;;;5090290;28;20442;-73
2022/04/24 11:14:35;;;;;;;9.60;6.18;;;18.00;78.80;;;;;;5083024;28;20119;-73
2022/04/24 11:17:02;;;;;;;12.90;6.78;;;18.10;80.20;;;;;;5051566;28;20032;-72
2022/04/24 11:19:34;;;;;;;8.85;6.55;;;18.30;77.90;;;;;;5080248;28;20024;-73
